Time;durP1;ratioP1;P1;durP2;ratioP2;P2;SDS_P1;SDS_P2;PMS_P1;PMS_P2;Temp;Humidity;BMP_temperature;BMP_pressure;BME280_temperature;BME280_humidity;BME280_pressure;Samples;Min_cycle;Max_cycle;Signal;HPM_P1;HPM_P2
2023/09/11 00:00:34;;;;;;;0.20;0.20;;;20.90;73.20;;;;;;5042866;28;20737;-81
2023/09/11 00:03:00;;;;;;;0.00;0.00;;;20.90;73.00;;;;;;5044115;28;20120;-80
2023/09/11 00:05:26;;;;;;;0.00;0.00;;;20.90;72.20;;;;;;5043681;28;20279;-81
2023/09/11 00:07:51;;;;;;;0.00;0.00;;;21.00;71.50;;;;;;5041733;28;20099;-80
2023/09/11 00:10:17;;;;;;;0.00;0.00;;;21.10;71.20;;;;;;5037114;28;20029;-80
2023/09/11 00:12:43;;;;;;;0.00;0.00;;;21.10;70.30;;;;;;5039852;28;20037;-81
2023/09/11 00:15:09;;;;;;;0.00;0.00;;;21.00;70.60;;;;;;5041424;28;20063;-80
2023/09/11 00:17:34;;;;;;;0.08;0.08;;;21.00;70.40;;;;;;5042629;28;20029;-81
2023/09/11 00:20:00;;;;;;;0.00;0.00;;;20.90;70.50;;;;;;5041945;28;20033;-80
2023/09/11 00:22:26;;;;;;;0.00;0.00;;;20.80;71.20;;;;;;5043016;28;20025;-81
2023/09/11 00:24:52;;;;;;;0.00;0.00;;;20.70;71.20;;;;;;5043362;28;20041;-81
2023/09/11 00:27:17;;;;;;;0.00;0.00;;;20.70;71.20;;;;;;5051067;28;20025;-80
2023/09/11 00:29:43;;;;;;;0.00;0.00;;;20.60;70.90;;;;;;5043281;28;20453;-80
2023/09/11 00:32:09;;;;;;;0.00;0.00;;;20.60;71.90;;;;;;5043583;28;20033;-81
2023/09/11 00:34:34;;;;;;;0.00;0.00;;;20.60;71.40;;;;;;5043164;28;20125;-81
2023/09/11 00:37:00;;;;;;;0.00;0.00;;;20.60;71.20;;;;;;5043922;28;20755;-80
2023/09/11 00:39:26;;;;;;;0.00;0.00;;;20.50;71.70;;;;;;5042863;28;20047;-81
2023/09/11 00:41:52;;;;;;;0.00;0.00;;;20.50;72.10;;;;;;5043481;28;20025;-81
2023/09/11 00:44:17;;;;;;;0.00;0.00;;;20.40;72.50;;;;;;5040806;28;20165;-82
2023/09/11 00:46:43;;;;;;;0.00;0.00;;;20.40;72.70;;;;;;5042997;28;20500;-81
2023/09/11 00:49:09;;;;;;;0.00;0.00;;;20.30;73.10;;;;;;5043679;28;20059;-80
2023/09/11 00:51:37;;;;;;;0.00;0.00;;;20.20;74.10;;;;;;5041890;28;20036;-80
2023/09/11 00:54:03;;;;;;;0.00;0.00;;;20.20;74.40;;;;;;5040518;28;20036;-81
2023/09/11 00:56:30;;;;;;;0.00;0.00;;;20.10;74.90;;;;;;5040968;28;20032;-81
2023/09/11 00:58:56;;;;;;;0.00;0.00;;;20.00;75.70;;;;;;5040430;28;20029;-82
2023/09/11 01:01:23;;;;;;;0.00;0.00;;;19.80;76.80;;;;;;5040189;28;20041;-82
2023/09/11 01:03:50;;;;;;;0.00;0.00;;;19.70;77.40;;;;;;5040940;28;20032;-82
2023/09/11 01:06:16;;;;;;;0.00;0.00;;;19.70;77.50;;;;;;5042013;28;20548;-82
2023/09/11 01:08:42;;;;;;;0.00;0.00;;;19.70;78.00;;;;;;5042757;28;20112;-82
2023/09/11 01:11:08;;;;;;;0.00;0.00;;;19.70;77.30;;;;;;5042975;28;20025;-82
2023/09/11 01:13:34;;;;;;;0.00;0.00;;;19.70;77.30;;;;;;5042280;28;20036;-81
2023/09/11 01:16:06;;;;;;;0.00;0.00;;;19.70;77.40;;;;;;5042727;28;20162;-81
2023/09/11 01:18:49;;;;;;;0.00;0.00;;;19.60;77.30;;;;;;5042262;28;20076;-81
2023/09/11 01:21:40;;;;;;;0.50;0.50;;;19.80;76.60;;;;;;5041349;28;20188;-81
2023/09/11 01:24:27;;;;;;;0.00;0.00;;;19.80;75.90;;;;;;5042175;28;20032;-82
2023/09/11 01:27:17;;;;;;;0.00;0.00;;;19.90;74.70;;;;;;5042814;28;20033;-82
2023/09/11 01:29:44;;;;;;;0.00;0.00;;;19.90;74.10;;;;;;5041541;28;20515;-82
2023/09/11 01:32:11;;;;;;;0.00;0.00;;;19.90;74.40;;;;;;5042280;28;20025;-82
2023/09/11 01:34:36;;;;;;;0.00;0.00;;;19.80;74.20;;;;;;5043227;28;20092;-82
2023/09/11 01:37:02;;;;;;;0.00;0.00;;;19.80;74.50;;;;;;5042343;28;20546;-81
2023/09/11 01:39:28;;;;;;;0.00;0.00;;;19.70;74.80;;;;;;5043343;28;20064;-81
2023/09/11 01:42:00;;;;;;;0.00;0.00;;;19.70;75.10;;;;;;5042403;28;20630;-82
2023/09/11 01:44:34;;;;;;;0.00;0.00;;;19.60;75.40;;;;;;5034160;28;20036;-80
2023/09/11 01:47:01;;;;;;;0.00;0.00;;;19.60;75.30;;;;;;5042086;28;20853;-79
2023/09/11 01:49:28;;;;;;;0.00;0.00;;;19.60;75.70;;;;;;5034008;28;20017;-80
2023/09/11 01:51:54;;;;;;;0.00;0.00;;;19.60;75.60;;;;;;5041810;28;20504;-81
2023/09/11 01:54:20;;;;;;;0.00;0.00;;;19.60;75.40;;;;;;5042204;28;20036;-81
2023/09/11 01:56:47;;;;;;;0.00;0.00;;;19.60;75.50;;;;;;5044008;28;20035;-79
2023/09/11 01:59:13;;;;;;;;;;;19.50;76.00;;;;;;5035152;28;20028;-80
2023/09/11 02:01:39;;;;;;;0.00;0.00;;;19.40;76.60;;;;;;5043230;28;19909;-80
2023/09/11 02:04:05;;;;;;;0.00;0.00;;;19.30;76.80;;;;;;5041851;28;20781;-79
2023/09/11 02:06:31;;;;;;;0.03;0.03;;;19.50;76.20;;;;;;5047997;28;20035;-79
2023/09/11 02:08:56;;;;;;;0.00;0.00;;;19.50;75.50;;;;;;5040549;28;20033;-80
2023/09/11 02:11:22;;;;;;;0.10;0.10;;;19.60;75.10;;;;;;5038728;28;20032;-79
2023/09/11 02:13:48;;;;;;;0.00;0.00;;;19.50;75.10;;;;;;5046895;28;20578;-80
2023/09/11 02:16:14;;;;;;;0.30;0.30;;;19.60;74.80;;;;;;5042270;28;20107;-80
2023/09/11 02:18:40;;;;;;;0.00;0.00;;;19.60;74.20;;;;;;5044528;28;20103;-80
2023/09/11 02:21:06;;;;;;;0.00;0.00;;;19.60;73.80;;;;;;5041636;28;20052;-80
2023/09/11 02:23:31;;;;;;;0.00;0.00;;;19.60;73.70;;;;;;5042606;28;20147;-79
2023/09/11 02:25:57;;;;;;;0.00;0.00;;;19.70;73.20;;;;;;5044993;28;20047;-80
2023/09/11 02:28:23;;;;;;;0.00;0.00;;;19.80;72.50;;;;;;5045085;28;20025;-81
2023/09/11 02:30:49;;;;;;;0.00;0.00;;;19.90;73.80;;;;;;5045249;28;20036;-81
2023/09/11 02:33:15;;;;;;;0.00;0.00;;;19.80;74.20;;;;;;5045507;28;20028;-81
2023/09/11 02:35:41;;;;;;;0.00;0.00;;;19.80;73.20;;;;;;5045311;28;20059;-82
2023/09/11 02:38:07;;;;;;;0.00;0.00;;;19.60;75.90;;;;;;5045662;28;20124;-82
2023/09/11 02:40:36;;;;;;;0.00;0.00;;;19.80;75.40;;;;;;5045396;28;20029;-84
2023/09/11 02:43:02;;;;;;;0.00;0.00;;;19.90;74.70;;;;;;5042468;28;20120;-82
2023/09/11 02:45:28;;;;;;;0.00;0.00;;;19.70;74.70;;;;;;5043445;28;20102;-82
2023/09/11 02:47:54;;;;;;;0.00;0.00;;;19.60;74.50;;;;;;5044644;28;20033;-82
2023/09/11 02:50:19;;;;;;;0.00;0.00;;;19.30;75.60;;;;;;5045294;28;20032;-83
2023/09/11 02:52:45;;;;;;;0.00;0.00;;;19.20;76.50;;;;;;5043348;28;20029;-83
2023/09/11 02:55:11;;;;;;;0.00;0.00;;;19.20;76.40;;;;;;5044738;28;20587;-83
2023/09/11 02:57:38;;;;;;;0.00;0.00;;;19.20;75.60;;;;;;5045355;28;20540;-81
2023/09/11 03:00:05;;;;;;;;;;;19.20;74.90;;;;;;5045207;28;20097;-81
2023/09/11 03:02:32;;;;;;;0.00;0.00;;;19.10;75.20;;;;;;5044762;28;19913;-81
2023/09/11 03:04:57;;;;;;;0.00;0.00;;;19.10;75.60;;;;;;5044781;28;20124;-81
2023/09/11 03:07:23;;;;;;;0.00;0.00;;;19.10;75.80;;;;;;5043740;28;20040;-82
2023/09/11 03:09:49;;;;;;;0.10;0.10;;;19.00;76.10;;;;;;5052465;28;20815;-81
2023/09/11 03:12:15;;;;;;;0.00;0.00;;;19.10;75.20;;;;;;5044021;28;20283;-82
2023/09/11 03:14:41;;;;;;;0.00;0.00;;;19.20;74.40;;;;;;5043903;28;20037;-83
2023/09/11 03:17:07;;;;;;;0.00;0.00;;;19.20;74.30;;;;;;5045339;28;20040;-83
2023/09/11 03:19:36;;;;;;;0.00;0.00;;;19.20;74.30;;;;;;5047973;28;20021;-82
2023/09/11 03:22:02;;;;;;;0.00;0.00;;;19.10;74.40;;;;;;5049777;28;20484;-81
2023/09/11 03:24:28;;;;;;;0.00;0.00;;;19.10;74.80;;;;;;5044514;28;20040;-82
2023/09/11 03:26:53;;;;;;;0.00;0.00;;;18.70;77.00;;;;;;5045553;28;20505;-81
2023/09/11 03:29:19;;;;;;;0.00;0.00;;;18.70;76.90;;;;;;5044539;28;20029;-83
2023/09/11 03:31:45;;;;;;;0.30;0.30;;;18.80;76.00;;;;;;5044792;28;20125;-81
2023/09/11 03:34:11;;;;;;;0.10;0.10;;;18.70;75.30;;;;;;5044455;28;20835;-81
2023/09/11 03:36:36;;;;;;;0.00;0.00;;;18.70;75.70;;;;;;5044191;28;20130;-82
2023/09/11 03:39:02;;;;;;;0.00;0.00;;;18.70;75.70;;;;;;5044544;28;20029;-79
2023/09/11 03:41:29;;;;;;;0.00;0.00;;;18.90;74.10;;;;;;5044294;28;20040;-80
2023/09/11 03:43:55;;;;;;;0.00;0.00;;;18.80;73.50;;;;;;5044179;28;20264;-79
2023/09/11 03:46:21;;;;;;;0.00;0.00;;;18.90;72.90;;;;;;5045013;28;20047;-81
2023/09/11 03:48:47;;;;;;;0.07;0.07;;;18.80;73.70;;;;;;5044305;28;20074;-79
2023/09/11 03:51:13;;;;;;;0.00;0.00;;;18.70;74.40;;;;;;5044170;28;20029;-80
2023/09/11 03:53:42;;;;;;;0.00;0.00;;;18.60;75.70;;;;;;5043509;28;20033;-78
2023/09/11 03:56:09;;;;;;;0.00;0.00;;;18.50;76.60;;;;;;5043404;28;20040;-78
2023/09/11 03:58:35;;;;;;;0.00;0.00;;;18.50;77.30;;;;;;5043016;28;20060;-78
2023/09/11 04:01:01;;;;;;;0.00;0.00;;;18.60;77.60;;;;;;5041442;28;20025;-79
2023/09/11 04:03:27;;;;;;;0.00;0.00;;;18.60;78.40;;;;;;5040101;28;20484;-82
2023/09/11 04:05:52;;;;;;;0.00;0.00;;;18.50;79.90;;;;;;5040248;28;20059;-82
2023/09/11 04:08:18;;;;;;;0.00;0.00;;;18.20;81.70;;;;;;5041644;28;20924;-81
2023/09/11 04:10:44;;;;;;;0.00;0.00;;;18.10;82.20;;;;;;5041214;28;20961;-81
2023/09/11 04:13:10;;;;;;;0.00;0.00;;;18.20;83.30;;;;;;5041519;28;20108;-82
2023/09/11 04:15:36;;;;;;;0.00;0.00;;;18.20;84.00;;;;;;5042949;28;20040;-87
2023/09/11 04:18:02;;;;;;;0.00;0.00;;;18.10;85.10;;;;;;5041201;28;20025;-87
2023/09/11 04:20:33;;;;;;;0.00;0.00;;;18.00;86.70;;;;;;5039456;28;20497;-87
2023/09/11 04:23:03;;;;;;;0.08;0.08;;;18.00;87.60;;;;;;5042165;28;20080;-85
2023/09/11 04:25:29;;;;;;;0.10;0.10;;;18.20;85.90;;;;;;5042221;28;20407;-81
2023/09/11 04:27:55;;;;;;;0.25;0.25;;;18.10;86.00;;;;;;5040534;28;20055;-79
2023/09/11 04:30:22;;;;;;;0.00;0.00;;;18.10;85.90;;;;;;5039371;28;20135;-81
2023/09/11 04:32:47;;;;;;;;;;;18.10;85.80;;;;;;5029591;28;20021;-82
2023/09/11 04:35:15;;;;;;;0.00;0.00;;;17.90;86.30;;;;;;5035405;28;19935;-76
2023/09/11 04:37:41;;;;;;;0.00;0.00;;;17.90;86.80;;;;;;5041450;28;20593;-77
2023/09/11 04:40:07;;;;;;;0.00;0.00;;;17.90;87.60;;;;;;5041900;28;20025;-76
2023/09/11 04:42:35;;;;;;;0.00;0.00;;;17.80;87.90;;;;;;5041845;28;20098;-77
2023/09/11 04:45:01;;;;;;;0.00;0.00;;;17.70;88.60;;;;;;5042134;28;20045;-77
2023/09/11 04:47:30;;;;;;;0.00;0.00;;;17.70;89.20;;;;;;5040878;28;20091;-75
2023/09/11 04:49:56;;;;;;;0.00;0.00;;;17.70;89.70;;;;;;5041994;28;20049;-76
2023/09/11 04:52:22;;;;;;;1.75;1.65;;;17.70;89.70;;;;;;5041755;28;20040;-76
2023/09/11 04:54:48;;;;;;;0.00;0.00;;;17.70;90.00;;;;;;5043943;28;20021;-74
2023/09/11 04:57:13;;;;;;;0.00;0.00;;;17.60;90.20;;;;;;5043417;28;20023;-79
2023/09/11 04:59:41;;;;;;;0.00;0.00;;;17.60;90.60;;;;;;5043306;28;20033;-75
2023/09/11 05:02:10;;;;;;;0.00;0.00;;;17.50;90.60;;;;;;5039559;28;20199;-74
2023/09/11 05:04:38;;;;;;;0.15;0.15;;;17.50;90.50;;;;;;5043292;28;20107;-75
2023/09/11 05:07:03;;;;;;;0.17;0.17;;;17.70;90.20;;;;;;5043099;28;20029;-76
2023/09/11 05:09:38;;;;;;;0.00;0.00;;;17.70;90.40;;;;;;5059711;28;21160;-76
2023/09/11 05:12:04;;;;;;;0.00;0.00;;;17.70;90.40;;;;;;5059900;28;20519;-77
2023/09/11 05:14:29;;;;;;;0.00;0.00;;;17.60;90.80;;;;;;5051624;28;20118;-76
2023/09/11 05:16:55;;;;;;;2.17;0.77;;;17.50;91.10;;;;;;5051913;28;20543;-79
2023/09/11 05:19:21;;;;;;;0.00;0.00;;;17.50;91.30;;;;;;5053402;28;20032;-77
2023/09/11 05:21:47;;;;;;;0.00;0.00;;;17.50;91.20;;;;;;5041009;28;20108;-77
2023/09/11 05:24:12;;;;;;;0.00;0.00;;;17.60;91.30;;;;;;5053023;28;20828;-76
2023/09/11 05:26:38;;;;;;;0.00;0.00;;;17.60;91.20;;;;;;5049843;28;20032;-75
2023/09/11 05:29:04;;;;;;;0.00;0.00;;;17.70;91.00;;;;;;5052445;28;20049;-76
2023/09/11 05:31:30;;;;;;;0.00;0.00;;;18.00;89.00;;;;;;5054889;28;20805;-76
2023/09/11 05:33:56;;;;;;;0.00;0.00;;;18.10;88.00;;;;;;5046552;28;20087;-77
2023/09/11 05:36:21;;;;;;;0.10;0.10;;;18.10;87.50;;;;;;5041512;28;20031;-77
2023/09/11 05:38:47;;;;;;;0.07;0.07;;;18.10;87.40;;;;;;5045056;28;20025;-78
2023/09/11 05:41:13;;;;;;;0.10;0.10;;;18.20;86.90;;;;;;5066003;28;20024;-76
2023/09/11 05:43:40;;;;;;;0.00;0.00;;;18.20;87.50;;;;;;5054170;28;20659;-75
2023/09/11 05:46:06;;;;;;;0.32;0.32;;;18.30;87.30;;;;;;5050278;28;20033;-76
2023/09/11 05:48:32;;;;;;;0.00;0.00;;;18.40;86.30;;;;;;5049274;28;20095;-76
2023/09/11 05:50:58;;;;;;;0.00;0.00;;;18.80;84.80;;;;;;5052818;28;20037;-76
2023/09/11 05:53:23;;;;;;;0.00;0.00;;;19.10;83.40;;;;;;5046802;28;20127;-77
2023/09/11 05:55:49;;;;;;;0.00;0.00;;;19.30;81.70;;;;;;5045437;28;20032;-75
2023/09/11 05:58:15;;;;;;;0.00;0.00;;;19.40;80.60;;;;;;5054851;28;20029;-76
2023/09/11 06:00:42;;;;;;;0.07;0.07;;;19.10;82.50;;;;;;5051396;28;20029;-76
2023/09/11 06:03:08;;;;;;;0.00;0.00;;;18.60;85.10;;;;;;5058538;28;20506;-76
2023/09/11 06:05:39;;;;;;;0.00;0.00;;;18.40;84.60;;;;;;5048857;28;20033;-78
2023/09/11 06:08:06;;;;;;;0.00;0.00;;;18.40;83.90;;;;;;5049854;28;20056;-75
2023/09/11 06:10:33;;;;;;;0.00;0.00;;;18.50;82.90;;;;;;5059535;28;20100;-77
2023/09/11 06:12:59;;;;;;;0.00;0.00;;;18.50;82.50;;;;;;5055844;28;20025;-81
2023/09/11 06:15:25;;;;;;;0.00;0.00;;;18.60;82.60;;;;;;5058638;28;20305;-82
2023/09/11 06:17:51;;;;;;;0.00;0.00;;;18.40;82.50;;;;;;5056068;28;20032;-80
2023/09/11 06:20:18;;;;;;;0.00;0.00;;;18.30;82.60;;;;;;5037407;28;20133;-78
2023/09/11 06:22:44;;;;;;;0.00;0.00;;;18.20;84.00;;;;;;5042762;28;20033;-78
2023/09/11 06:25:10;;;;;;;0.00;0.00;;;18.30;83.60;;;;;;5035976;28;20881;-79
2023/09/11 06:27:36;;;;;;;0.00;0.00;;;18.20;83.80;;;;;;5039068;28;20974;-78
2023/09/11 06:30:05;;;;;;;0.00;0.00;;;18.20;83.80;;;;;;5034269;28;20037;-79
2023/09/11 06:32:32;;;;;;;0.00;0.00;;;18.30;84.40;;;;;;5043053;28;20060;-79
2023/09/11 06:34:58;;;;;;;;;;;18.30;83.90;;;;;;5041670;28;20075;-79
2023/09/11 06:37:24;;;;;;;0.10;0.10;;;18.40;82.80;;;;;;5045876;28;19912;-79
2023/09/11 06:39:52;;;;;;;0.00;0.00;;;18.80;80.90;;;;;;5046810;28;20039;-80
2023/09/11 06:42:22;;;;;;;0.00;0.00;;;18.90;81.10;;;;;;5046983;28;20029;-78
2023/09/11 06:44:48;;;;;;;0.00;0.00;;;18.90;79.80;;;;;;5043900;28;20084;-77
2023/09/11 06:47:13;;;;;;;0.00;0.00;;;19.40;78.60;;;;;;5045913;28;20496;-79
2023/09/11 06:49:39;;;;;;;0.00;0.00;;;19.10;80.00;;;;;;5045517;28;20511;-77
2023/09/11 06:52:05;;;;;;;0.00;0.00;;;18.90;81.50;;;;;;5042894;28;20037;-79
2023/09/11 06:54:30;;;;;;;0.00;0.00;;;18.70;82.90;;;;;;5048679;28;20043;-83
2023/09/11 06:56:56;;;;;;;0.00;0.00;;;18.60;84.60;;;;;;5038167;28;20060;-85
2023/09/11 06:59:22;;;;;;;0.00;0.00;;;18.50;83.40;;;;;;5051648;28;20757;-83
2023/09/11 07:01:48;;;;;;;0.00;0.00;;;18.50;82.40;;;;;;5038949;28;20103;-80
2023/09/11 07:04:14;;;;;;;0.00;0.00;;;18.60;81.40;;;;;;5042552;28;20115;-81
2023/09/11 07:06:40;;;;;;;0.00;0.00;;;18.70;81.60;;;;;;5044104;28;20040;-81
2023/09/11 07:09:07;;;;;;;0.00;0.00;;;18.70;84.40;;;;;;5035945;28;20235;-80
2023/09/11 07:11:33;;;;;;;0.00;0.00;;;18.80;81.10;;;;;;5043056;28;20032;-80
2023/09/11 07:13:59;;;;;;;0.00;0.00;;;19.00;80.10;;;;;;5028928;28;20028;-82
2023/09/11 07:16:25;;;;;;;0.00;0.00;;;19.40;78.70;;;;;;5034609;28;20033;-78
2023/09/11 07:18:51;;;;;;;0.00;0.00;;;22.50;70.70;;;;;;5042667;28;20029;-79
2023/09/11 07:21:17;;;;;;;0.03;0.03;;;22.40;69.50;;;;;;5036268;28;20059;-79
2023/09/11 07:23:43;;;;;;;0.00;0.00;;;22.60;68.10;;;;;;5043370;28;20539;-80
2023/09/11 07:26:08;;;;;;;0.00;0.00;;;21.90;69.80;;;;;;5035916;28;20040;-80
2023/09/11 07:28:57;;;;;;;0.00;0.00;;;21.50;71.90;;;;;;5025149;28;20037;-81
2023/09/11 07:31:23;;;;;;;4.57;1.08;;;21.20;74.40;;;;;;5042438;28;20041;-78
2023/09/11 07:33:50;;;;;;;;;;;21.20;75.50;;;;;;5035245;28;20025;-78
2023/09/11 07:36:17;;;;;;;0.00;0.00;;;21.20;74.50;;;;;;5029468;28;20350;-81
2023/09/11 07:38:44;;;;;;;0.00;0.00;;;21.30;74.10;;;;;;5032436;28;20037;-78
2023/09/11 07:41:20;;;;;;;0.00;0.00;;;21.50;73.30;;;;;;5041771;28;20029;-79
2023/09/11 07:43:49;;;;;;;0.00;0.00;;;21.80;72.70;;;;;;5037899;28;20029;-79
2023/09/11 07:46:19;;;;;;;0.00;0.00;;;21.90;72.70;;;;;;5033901;28;20037;-79
2023/09/11 07:48:45;;;;;;;0.00;0.00;;;22.10;72.80;;;;;;5031555;28;20037;-81
2023/09/11 07:51:12;;;;;;;0.00;0.00;;;22.10;71.90;;;;;;5043735;28;20531;-80
2023/09/11 07:53:38;;;;;;;0.00;0.00;;;22.20;71.10;;;;;;5039327;28;20373;-77
2023/09/11 07:56:08;;;;;;;0.00;0.00;;;22.40;71.10;;;;;;5035673;28;20104;-79
2023/09/11 07:58:37;;;;;;;0.00;0.00;;;24.80;66.40;;;;;;5035547;28;20040;-77
2023/09/11 08:01:04;;;;;;;0.00;0.00;;;23.30;68.40;;;;;;5032135;28;20072;-79
2023/09/11 08:03:33;;;;;;;;;;;22.50;71.40;;;;;;5040826;28;20024;-77
2023/09/11 08:06:05;;;;;;;0.00;0.00;;;22.00;73.50;;;;;;5036813;28;19948;-75
2023/09/11 08:08:31;;;;;;;0.00;0.00;;;21.80;73.70;;;;;;5036975;28;20061;-78
2023/09/11 08:10:56;;;;;;;0.00;0.00;;;21.70;74.40;;;;;;5037553;28;20082;-82
2023/09/11 08:13:22;;;;;;;0.00;0.00;;;21.60;75.00;;;;;;5042331;28;20025;-77
2023/09/11 08:15:48;;;;;;;0.00;0.00;;;21.60;74.80;;;;;;5042831;28;20757;-77
2023/09/11 08:18:14;;;;;;;0.00;0.00;;;21.70;74.80;;;;;;5041976;28;20836;-79
2023/09/11 08:20:42;;;;;;;1.30;0.57;;;21.70;73.90;;;;;;5031029;28;20032;-80
2023/09/11 08:23:08;;;;;;;0.00;0.00;;;21.50;75.30;;;;;;5030692;28;20259;-81
2023/09/11 08:25:34;;;;;;;0.00;0.00;;;21.40;74.70;;;;;;5030712;28;20032;-77
2023/09/11 08:27:59;;;;;;;0.00;0.00;;;21.30;75.20;;;;;;5022123;28;20424;-76
2023/09/11 08:30:25;;;;;;;0.00;0.00;;;21.20;74.50;;;;;;5037220;28;20029;-76
2023/09/11 08:32:51;;;;;;;0.00;0.00;;;21.20;74.30;;;;;;5030032;28;20104;-80
2023/09/11 08:35:17;;;;;;;0.00;0.00;;;21.10;74.60;;;;;;5027397;28;20142;-77
2023/09/11 08:37:42;;;;;;;0.00;0.00;;;21.40;75.40;;;;;;5033362;28;20039;-80
2023/09/11 08:40:08;;;;;;;0.00;0.00;;;21.30;76.50;;;;;;5053266;28;20052;-79
2023/09/11 08:42:34;;;;;;;0.00;0.00;;;21.80;77.10;;;;;;5043703;28;20095;-81
2023/09/11 08:45:00;;;;;;;0.00;0.00;;;25.50;68.60;;;;;;5043212;28;20024;-78
2023/09/11 08:47:30;;;;;;;0.00;0.00;;;24.90;64.00;;;;;;5037460;28;20025;-80
2023/09/11 08:50:02;;;;;;;0.00;0.00;;;24.30;63.40;;;;;;5031910;28;20063;-81
2023/09/11 08:52:29;;;;;;;0.00;0.00;;;23.70;65.90;;;;;;5036458;28;20098;-76
2023/09/11 08:54:59;;;;;;;0.00;0.00;;;24.20;63.70;;;;;;5041643;28;20017;-80
2023/09/11 08:57:27;;;;;;;0.22;0.22;;;25.30;62.00;;;;;;5028643;28;20033;-78
2023/09/11 08:59:58;;;;;;;0.00;0.00;;;25.30;60.50;;;;;;5041783;28;20021;-79
2023/09/11 09:02:25;;;;;;;0.00;0.00;;;24.80;61.40;;;;;;5043744;28;20129;-78
2023/09/11 09:04:52;;;;;;;0.10;0.10;;;24.30;64.10;;;;;;5036444;28;20021;-78
2023/09/11 09:07:18;;;;;;;;;;;25.30;62.30;;;;;;5037858;28;20435;-75
2023/09/11 09:09:45;;;;;;;0.00;0.00;;;25.10;60.50;;;;;;5049226;28;19912;-77
2023/09/11 09:12:11;;;;;;;0.00;0.00;;;25.20;60.60;;;;;;5033830;28;20040;-78
2023/09/11 09:14:38;;;;;;;0.00;0.00;;;25.60;59.30;;;;;;5044329;28;20033;-78
2023/09/11 09:17:04;;;;;;;0.00;0.00;;;25.70;59.30;;;;;;5032638;28;20116;-75
2023/09/11 09:19:30;;;;;;;0.00;0.00;;;25.30;60.00;;;;;;5041151;28;20025;-75
2023/09/11 09:22:05;;;;;;;0.00;0.00;;;25.90;60.50;;;;;;5042471;28;20103;-81
2023/09/11 09:24:34;;;;;;;0.00;0.00;;;28.50;57.20;;;;;;5038672;28;20021;-78
2023/09/11 09:27:05;;;;;;;0.00;0.00;;;29.60;54.80;;;;;;5035090;28;20125;-75
2023/09/11 09:29:35;;;;;;;0.00;0.00;;;30.30;51.00;;;;;;5028966;28;20832;-80
2023/09/11 09:32:05;;;;;;;0.00;0.00;;;30.80;50.20;;;;;;5042709;28;20423;-80
2023/09/11 09:34:35;;;;;;;0.00;0.00;;;31.40;49.70;;;;;;5036245;28;20083;-81
2023/09/11 09:37:01;;;;;;;1.38;1.27;;;31.90;48.20;;;;;;5027374;28;20025;-83
2023/09/11 09:39:28;;;;;;;0.00;0.00;;;32.30;47.20;;;;;;5036071;28;20026;-81
2023/09/11 09:41:54;;;;;;;0.00;0.00;;;32.10;46.90;;;;;;5038271;28;20491;-79
2023/09/11 09:44:33;;;;;;;0.00;0.00;;;31.30;47.30;;;;;;5027261;28;20048;-75
2023/09/11 09:47:19;;;;;;;0.00;0.00;;;32.30;46.60;;;;;;5030321;28;20785;-77
2023/09/11 09:49:53;;;;;;;0.00;0.00;;;32.50;46.90;;;;;;5027889;28;20030;-81
2023/09/11 09:52:21;;;;;;;0.00;0.00;;;33.40;44.70;;;;;;5034605;28;20040;-80
2023/09/11 09:54:52;;;;;;;0.00;0.00;;;33.00;42.80;;;;;;5043446;28;20025;-80
2023/09/11 09:57:20;;;;;;;0.00;0.00;;;33.00;42.10;;;;;;5040660;28;20111;-77
2023/09/11 09:59:53;;;;;;;0.00;0.00;;;33.40;41.70;;;;;;5039698;28;20029;-77
2023/09/11 10:02:34;;;;;;;0.00;0.00;;;33.40;41.60;;;;;;5039344;28;20021;-74
2023/09/11 10:05:08;;;;;;;0.00;0.00;;;32.50;43.20;;;;;;5040291;28;20589;-74
2023/09/11 10:07:39;;;;;;;0.00;0.00;;;31.30;44.20;;;;;;5038570;28;20136;-76
2023/09/11 10:10:21;;;;;;;0.00;0.00;;;30.30;46.20;;;;;;5039880;28;20025;-78
2023/09/11 10:13:00;;;;;;;0.00;0.00;;;30.30;48.20;;;;;;5037974;28;20083;-78
2023/09/11 10:15:26;;;;;;;0.30;0.30;;;30.00;47.70;;;;;;5041146;28;20048;-77
2023/09/11 10:17:56;;;;;;;0.00;0.00;;;29.80;48.60;;;;;;5045011;28;20093;-80
2023/09/11 10:20:22;;;;;;;0.00;0.00;;;28.70;47.20;;;;;;5032615;28;20029;-81
2023/09/11 10:22:48;;;;;;;;;;;28.80;48.60;;;;;;5041225;28;20140;-80
2023/09/11 10:25:17;;;;;;;0.00;0.00;;;28.90;48.90;;;;;;5027035;28;20406;-85
2023/09/11 10:27:44;;;;;;;0.00;0.00;;;28.90;49.60;;;;;;5029392;28;20029;-76
2023/09/11 10:30:12;;;;;;;0.00;0.00;;;28.90;50.00;;;;;;5033842;28;20032;-80
2023/09/11 10:32:49;;;;;;;0.00;0.00;;;28.80;50.20;;;;;;5046113;28;20029;-75
2023/09/11 10:35:15;;;;;;;0.00;0.00;;;28.70;50.00;;;;;;5035728;28;20049;-84
2023/09/11 10:37:42;;;;;;;0.00;0.00;;;28.60;49.80;;;;;;5040173;28;20408;-83
2023/09/11 10:40:11;;;;;;;0.17;0.17;;;28.70;49.90;;;;;;5040619;28;20029;-78
2023/09/11 10:42:37;;;;;;;0.00;0.00;;;28.40;49.20;;;;;;5035744;28;20718;-84
2023/09/11 10:45:04;;;;;;;0.00;0.00;;;28.20;47.60;;;;;;5036891;28;20025;-79
2023/09/11 10:47:29;;;;;;;0.00;0.00;;;28.40;48.90;;;;;;5044677;28;20033;-81
2023/09/11 10:49:58;;;;;;;0.20;0.20;;;28.50;49.20;;;;;;5037385;28;20029;-79
2023/09/11 10:52:27;;;;;;;0.00;0.00;;;28.50;49.30;;;;;;5040817;28;20033;-76
2023/09/11 10:54:53;;;;;;;0.00;0.00;;;28.40;48.10;;;;;;5041445;28;20055;-77
2023/09/11 10:57:19;;;;;;;0.00;0.00;;;28.50;49.50;;;;;;5037556;28;20048;-75
2023/09/11 10:59:44;;;;;;;0.00;0.00;;;28.20;48.50;;;;;;5044733;28;20029;-85
2023/09/11 11:02:10;;;;;;;0.00;0.00;;;28.30;50.10;;;;;;5034592;28;20811;-85
2023/09/11 11:04:37;;;;;;;0.00;0.00;;;28.40;47.20;;;;;;5035210;28;20028;-79
2023/09/11 11:07:02;;;;;;;;;;;28.20;46.00;;;;;;5050267;28;20021;-83
2023/09/11 11:09:28;;;;;;;0.00;0.00;;;28.40;49.00;;;;;;5041895;28;19928;-75
2023/09/11 11:12:13;;;;;;;0.00;0.00;;;28.50;45.80;;;;;;5039779;28;20021;-78
2023/09/11 11:14:39;;;;;;;0.00;0.00;;;28.40;44.50;;;;;;5038822;28;20353;-76
2023/09/11 11:17:12;;;;;;;0.00;0.00;;;28.50;44.40;;;;;;5034895;28;20132;-78
2023/09/11 11:19:58;;;;;;;0.00;0.00;;;28.50;44.00;;;;;;5036319;28;20055;-75
2023/09/11 11:22:31;;;;;;;0.00;0.00;;;28.50;45.00;;;;;;5038294;28;20021;-76
2023/09/11 11:24:58;;;;;;;0.00;0.00;;;28.50;43.80;;;;;;5024098;28;20404;-76
2023/09/11 11:27:24;;;;;;;0.00;0.00;;;28.50;43.00;;;;;;5037346;28;20034;-76
2023/09/11 11:29:52;;;;;;;0.00;0.00;;;28.60;43.40;;;;;;5034731;28;20080;-75
2023/09/11 11:32:21;;;;;;;0.00;0.00;;;28.50;40.90;;;;;;5035720;28;20040;-75
2023/09/11 11:34:50;;;;;;;0.00;0.00;;;28.40;40.40;;;;;;5042451;28;20052;-78
2023/09/11 11:37:20;;;;;;;0.38;0.17;;;28.40;39.70;;;;;;5034295;28;20056;-79
2023/09/11 11:39:46;;;;;;;0.00;0.00;;;28.30;41.70;;;;;;5040703;28;20021;-78
2023/09/11 11:42:13;;;;;;;;;;;28.20;41.10;;;;;;5045356;28;20029;-79
2023/09/11 11:44:39;;;;;;;0.00;0.00;;;28.20;41.30;;;;;;5040493;28;19956;-80
2023/09/11 11:47:07;;;;;;;0.00;0.00;;;28.30;40.00;;;;;;5035550;28;20030;-78
2023/09/11 11:49:35;;;;;;;0.00;0.00;;;28.10;39.90;;;;;;5043100;28;20572;-78
2023/09/11 11:52:03;;;;;;;0.00;0.00;;;28.00;41.30;;;;;;5027327;28;20080;-79
2023/09/11 11:54:29;;;;;;;0.00;0.00;;;28.40;41.20;;;;;;5043490;28;20028;-77
2023/09/11 11:57:00;;;;;;;0.00;0.00;;;28.50;41.40;;;;;;5043295;28;20025;-75
2023/09/11 11:59:39;;;;;;;0.00;0.00;;;28.40;41.40;;;;;;5026000;28;20040;-79
2023/09/11 12:02:18;;;;;;;0.00;0.00;;;28.40;40.90;;;;;;5041883;28;20032;-76
2023/09/11 12:04:43;;;;;;;0.00;0.00;;;28.80;40.30;;;;;;5032717;28;20087;-81
2023/09/11 12:07:09;;;;;;;0.10;0.10;;;28.90;40.20;;;;;;5030012;28;20593;-77
2023/09/11 12:09:39;;;;;;;0.00;0.00;;;28.80;41.40;;;;;;5037589;28;20281;-77
2023/09/11 12:12:06;;;;;;;0.00;0.00;;;29.00;41.70;;;;;;5032215;28;20032;-81
2023/09/11 12:14:32;;;;;;;0.00;0.00;;;29.20;39.80;;;;;;5032988;28;20217;-75
2023/09/11 12:16:58;;;;;;;0.00;0.00;;;29.10;38.70;;;;;;5042859;28;20760;-78
2023/09/11 12:19:23;;;;;;;0.00;0.00;;;28.90;39.50;;;;;;5041255;28;20033;-81
2023/09/11 12:21:49;;;;;;;0.00;0.00;;;28.70;38.70;;;;;;5042443;28;20466;-76
2023/09/11 12:24:15;;;;;;;0.00;0.00;;;28.60;39.40;;;;;;5042906;28;20033;-78
2023/09/11 12:26:41;;;;;;;0.00;0.00;;;28.60;39.50;;;;;;5034041;28;20021;-78
2023/09/11 12:29:07;;;;;;;0.00;0.00;;;28.60;39.30;;;;;;5037829;28;20059;-76
2023/09/11 12:31:33;;;;;;;0.00;0.00;;;28.50;40.10;;;;;;5034831;28;20670;-78
2023/09/11 12:33:59;;;;;;;0.00;0.00;;;28.50;40.30;;;;;;5040963;28;20044;-76
2023/09/11 12:36:25;;;;;;;0.00;0.00;;;28.80;41.10;;;;;;5035379;28;20021;-80
2023/09/11 12:38:50;;;;;;;0.00;0.00;;;28.60;40.40;;;;;;5035893;28;20282;-81
2023/09/11 12:41:17;;;;;;;0.80;0.70;;;28.60;39.90;;;;;;5041928;28;20574;-79
2023/09/11 12:43:43;;;;;;;0.00;0.00;;;28.50;39.00;;;;;;5042585;28;20029;-76
2023/09/11 12:46:14;;;;;;;0.00;0.00;;;28.30;39.50;;;;;;5024847;28;20884;-74
2023/09/11 12:48:41;;;;;;;0.00;0.00;;;28.30;39.60;;;;;;5035979;28;20079;-78
2023/09/11 12:51:08;;;;;;;0.00;0.00;;;28.40;39.50;;;;;;5041006;28;20584;-78